sensor_id;sensor_type;location;lat;lon;timestamp;P1;durP1;ratioP1;P2;durP2;ratioP2
553;SDS011;59;48.778;9.156;2024-01-30T00:01:28;12.60;;;7.43;;
553;SDS011;59;48.778;9.156;2024-01-30T00:03:53;13.70;;;7.73;;
553;SDS011;59;48.778;9.156;2024-01-30T00:06:19;13.07;;;7.57;;
553;SDS011;59;48.778;9.156;2024-01-30T00:08:48;15.20;;;7.90;;
553;SDS011;59;48.778;9.156;2024-01-30T00:11:14;13.60;;;8.33;;
553;SDS011;59;48.778;9.156;2024-01-30T00:13:41;11.33;;;6.60;;
553;SDS011;59;48.778;9.156;2024-01-30T00:16:07;12.40;;;7.20;;
553;SDS011;59;48.778;9.156;2024-01-30T00:18:34;13.93;;;7.67;;
553;SDS011;59;48.778;9.156;2024-01-30T00:21:00;15.20;;;8.07;;
553;SDS011;59;48.778;9.156;2024-01-30T00:23:26;14.17;;;7.40;;
553;SDS011;59;48.778;9.156;2024-01-30T00:25:52;14.80;;;7.83;;
553;SDS011;59;48.778;9.156;2024-01-30T00:28:18;11.90;;;7.60;;
553;SDS011;59;48.778;9.156;2024-01-30T00:30:44;13.50;;;7.97;;
553;SDS011;59;48.778;9.156;2024-01-30T00:33:10;13.40;;;8.23;;
553;SDS011;59;48.778;9.156;2024-01-30T00:35:35;15.17;;;7.23;;
553;SDS011;59;48.778;9.156;2024-01-30T00:38:01;11.90;;;7.80;;
553;SDS011;59;48.778;9.156;2024-01-30T00:40:27;12.90;;;8.40;;
553;SDS011;59;48.778;9.156;2024-01-30T00:42:53;14.23;;;8.07;;
553;SDS011;59;48.778;9.156;2024-01-30T00:45:18;16.83;;;8.13;;
553;SDS011;59;48.778;9.156;2024-01-30T00:47:44;14.60;;;7.80;;
553;SDS011;59;48.778;9.156;2024-01-30T00:50:11;12.83;;;7.07;;
553;SDS011;59;48.778;9.156;2024-01-30T00:52:36;14.33;;;8.10;;
553;SDS011;59;48.778;9.156;2024-01-30T00:55:04;18.03;;;8.60;;
553;SDS011;59;48.778;9.156;2024-01-30T00:57:30;15.03;;;7.70;;
553;SDS011;59;48.778;9.156;2024-01-30T00:59:56;11.70;;;7.70;;
553;SDS011;59;48.778;9.156;2024-01-30T01:02:22;12.43;;;8.00;;
553;SDS011;59;48.778;9.156;2024-01-30T01:04:48;15.20;;;7.70;;
553;SDS011;59;48.778;9.156;2024-01-30T01:07:14;13.73;;;7.43;;
553;SDS011;59;48.778;9.156;2024-01-30T01:09:39;13.37;;;8.43;;
553;SDS011;59;48.778;9.156;2024-01-30T01:12:05;13.60;;;8.00;;
553;SDS011;59;48.778;9.156;2024-01-30T01:14:31;13.60;;;7.97;;
553;SDS011;59;48.778;9.156;2024-01-30T01:16:57;14.20;;;8.03;;
553;SDS011;59;48.778;9.156;2024-01-30T01:19:23;15.33;;;8.17;;
553;SDS011;59;48.778;9.156;2024-01-30T01:21:49;16.27;;;8.77;;
553;SDS011;59;48.778;9.156;2024-01-30T01:24:15;13.13;;;7.77;;
553;SDS011;59;48.778;9.156;2024-01-30T01:26:40;16.03;;;8.60;;
553;SDS011;59;48.778;9.156;2024-01-30T01:29:06;14.60;;;8.30;;
553;SDS011;59;48.778;9.156;2024-01-30T01:31:37;14.07;;;8.70;;
553;SDS011;59;48.778;9.156;2024-01-30T01:34:11;15.60;;;9.70;;
553;SDS011;59;48.778;9.156;2024-01-30T01:36:37;17.80;;;8.57;;
553;SDS011;59;48.778;9.156;2024-01-30T01:39:03;16.27;;;9.50;;
553;SDS011;59;48.778;9.156;2024-01-30T01:41:33;13.57;;;8.27;;
553;SDS011;59;48.778;9.156;2024-01-30T01:43:59;12.87;;;7.53;;
553;SDS011;59;48.778;9.156;2024-01-30T01:46:26;15.27;;;8.60;;
553;SDS011;59;48.778;9.156;2024-01-30T01:48:52;13.10;;;8.07;;
553;SDS011;59;48.778;9.156;2024-01-30T01:51:19;13.33;;;8.40;;
553;SDS011;59;48.778;9.156;2024-01-30T01:53:45;13.10;;;7.30;;
553;SDS011;59;48.778;9.156;2024-01-30T01:56:11;11.60;;;7.00;;
553;SDS011;59;48.778;9.156;2024-01-30T01:58:37;14.83;;;9.17;;
553;SDS011;59;48.778;9.156;2024-01-30T02:01:03;13.50;;;7.97;;
553;SDS011;59;48.778;9.156;2024-01-30T02:03:30;13.80;;;7.93;;
553;SDS011;59;48.778;9.156;2024-01-30T02:05:56;12.83;;;9.33;;
553;SDS011;59;48.778;9.156;2024-01-30T02:08:22;12.70;;;7.80;;
553;SDS011;59;48.778;9.156;2024-01-30T02:10:48;13.00;;;7.10;;
553;SDS011;59;48.778;9.156;2024-01-30T02:13:14;14.73;;;7.70;;
553;SDS011;59;48.778;9.156;2024-01-30T02:15:40;14.03;;;8.00;;
553;SDS011;59;48.778;9.156;2024-01-30T02:18:05;13.50;;;7.87;;
553;SDS011;59;48.778;9.156;2024-01-30T02:20:31;15.10;;;7.93;;
553;SDS011;59;48.778;9.156;2024-01-30T02:23:00;13.60;;;7.20;;
553;SDS011;59;48.778;9.156;2024-01-30T02:25:33;13.40;;;7.23;;
553;SDS011;59;48.778;9.156;2024-01-30T02:28:00;11.07;;;6.20;;
553;SDS011;59;48.778;9.156;2024-01-30T02:33:55;10.03;;;7.03;;
553;SDS011;59;48.778;9.156;2024-01-30T02:36:21;11.73;;;7.20;;
553;SDS011;59;48.778;9.156;2024-01-30T02:38:47;10.30;;;7.17;;
553;SDS011;59;48.778;9.156;2024-01-30T02:41:12;13.47;;;7.40;;
553;SDS011;59;48.778;9.156;2024-01-30T02:43:39;14.23;;;7.90;;
553;SDS011;59;48.778;9.156;2024-01-30T02:46:04;10.13;;;6.80;;
553;SDS011;59;48.778;9.156;2024-01-30T02:48:30;13.63;;;8.00;;
553;SDS011;59;48.778;9.156;2024-01-30T02:50:56;12.33;;;7.30;;
553;SDS011;59;48.778;9.156;2024-01-30T02:53:23;12.50;;;7.00;;
553;SDS011;59;48.778;9.156;2024-01-30T02:55:48;14.40;;;8.50;;
553;SDS011;59;48.778;9.156;2024-01-30T02:58:32;11.97;;;7.43;;
553;SDS011;59;48.778;9.156;2024-01-30T03:00:57;10.73;;;6.40;;
553;SDS011;59;48.778;9.156;2024-01-30T03:03:23;13.13;;;7.90;;
553;SDS011;59;48.778;9.156;2024-01-30T03:05:49;12.57;;;7.63;;
553;SDS011;59;48.778;9.156;2024-01-30T03:08:15;10.47;;;6.73;;
553;SDS011;59;48.778;9.156;2024-01-30T03:10:41;12.60;;;6.60;;
553;SDS011;59;48.778;9.156;2024-01-30T03:13:07;16.60;;;7.60;;
553;SDS011;59;48.778;9.156;2024-01-30T03:18:23;11.53;;;6.80;;
553;SDS011;59;48.778;9.156;2024-01-30T03:24:07;11.50;;;7.27;;
553;SDS011;59;48.778;9.156;2024-01-30T03:26:55;11.73;;;7.30;;
553;SDS011;59;48.778;9.156;2024-01-30T03:30:13;15.73;;;7.83;;
553;SDS011;59;48.778;9.156;2024-01-30T03:33:12;13.10;;;7.10;;
553;SDS011;59;48.778;9.156;2024-01-30T03:35:38;11.17;;;6.93;;
553;SDS011;59;48.778;9.156;2024-01-30T03:38:03;11.77;;;7.43;;
553;SDS011;59;48.778;9.156;2024-01-30T03:40:32;11.60;;;7.67;;
553;SDS011;59;48.778;9.156;2024-01-30T03:43:15;11.87;;;7.73;;
553;SDS011;59;48.778;9.156;2024-01-30T03:45:47;16.30;;;7.50;;
553;SDS011;59;48.778;9.156;2024-01-30T03:48:34;12.10;;;8.20;;
553;SDS011;59;48.778;9.156;2024-01-30T03:50:59;11.60;;;7.50;;
553;SDS011;59;48.778;9.156;2024-01-30T03:53:25;13.47;;;8.43;;
553;SDS011;59;48.778;9.156;2024-01-30T03:55:53;13.17;;;7.17;;
553;SDS011;59;48.778;9.156;2024-01-30T03:58:19;11.43;;;7.80;;
553;SDS011;59;48.778;9.156;2024-01-30T04:00:53;12.03;;;7.40;;
553;SDS011;59;48.778;9.156;2024-01-30T04:03:40;13.00;;;8.20;;
553;SDS011;59;48.778;9.156;2024-01-30T04:06:14;10.53;;;7.07;;
553;SDS011;59;48.778;9.156;2024-01-30T04:09:15;10.63;;;6.83;;
553;SDS011;59;48.778;9.156;2024-01-30T04:11:41;11.77;;;7.07;;
553;SDS011;59;48.778;9.156;2024-01-30T04:14:16;10.30;;;6.50;;
553;SDS011;59;48.778;9.156;2024-01-30T04:16:44;11.67;;;7.30;;
553;SDS011;59;48.778;9.156;2024-01-30T04:19:13;14.60;;;7.50;;
553;SDS011;59;48.778;9.156;2024-01-30T04:21:42;12.23;;;7.10;;
553;SDS011;59;48.778;9.156;2024-01-30T04:24:07;12.53;;;7.60;;
553;SDS011;59;48.778;9.156;2024-01-30T04:26:33;13.60;;;7.60;;
553;SDS011;59;48.778;9.156;2024-01-30T04:28:59;14.57;;;7.60;;
553;SDS011;59;48.778;9.156;2024-01-30T04:31:25;15.87;;;7.83;;
553;SDS011;59;48.778;9.156;2024-01-30T04:33:50;14.10;;;7.47;;
553;SDS011;59;48.778;9.156;2024-01-30T04:36:16;12.53;;;8.73;;
553;SDS011;59;48.778;9.156;2024-01-30T04:38:42;12.00;;;7.80;;
553;SDS011;59;48.778;9.156;2024-01-30T04:41:07;13.87;;;8.20;;
553;SDS011;59;48.778;9.156;2024-01-30T04:43:33;17.10;;;7.40;;
553;SDS011;59;48.778;9.156;2024-01-30T04:46:13;13.97;;;7.70;;
553;SDS011;59;48.778;9.156;2024-01-30T04:48:39;13.70;;;7.80;;
553;SDS011;59;48.778;9.156;2024-01-30T04:51:08;14.90;;;7.80;;
553;SDS011;59;48.778;9.156;2024-01-30T04:53:42;13.43;;;7.90;;
553;SDS011;59;48.778;9.156;2024-01-30T04:56:08;12.63;;;7.50;;
553;SDS011;59;48.778;9.156;2024-01-30T04:58:34;9.73;;;6.97;;
553;SDS011;59;48.778;9.156;2024-01-30T05:00:59;14.50;;;8.27;;
553;SDS011;59;48.778;9.156;2024-01-30T05:03:25;12.83;;;8.27;;
553;SDS011;59;48.778;9.156;2024-01-30T05:05:51;15.53;;;9.07;;
553;SDS011;59;48.778;9.156;2024-01-30T05:08:16;12.70;;;7.67;;
553;SDS011;59;48.778;9.156;2024-01-30T05:10:42;11.43;;;8.10;;
553;SDS011;59;48.778;9.156;2024-01-30T05:13:08;13.23;;;7.90;;
553;SDS011;59;48.778;9.156;2024-01-30T05:15:33;12.40;;;8.50;;
553;SDS011;59;48.778;9.156;2024-01-30T05:17:59;12.83;;;7.67;;
553;SDS011;59;48.778;9.156;2024-01-30T05:20:33;11.57;;;8.30;;
553;SDS011;59;48.778;9.156;2024-01-30T05:23:25;13.03;;;8.20;;
553;SDS011;59;48.778;9.156;2024-01-30T05:25:53;17.93;;;8.27;;
553;SDS011;59;48.778;9.156;2024-01-30T05:28:29;14.47;;;8.20;;
553;SDS011;59;48.778;9.156;2024-01-30T05:31:24;14.90;;;8.40;;
553;SDS011;59;48.778;9.156;2024-01-30T05:34:29;16.73;;;9.63;;
553;SDS011;59;48.778;9.156;2024-01-30T05:36:55;14.77;;;9.40;;
553;SDS011;59;48.778;9.156;2024-01-30T05:39:24;13.43;;;8.17;;
553;SDS011;59;48.778;9.156;2024-01-30T05:41:50;14.87;;;8.70;;
553;SDS011;59;48.778;9.156;2024-01-30T05:44:15;14.13;;;8.73;;
553;SDS011;59;48.778;9.156;2024-01-30T05:46:50;15.00;;;9.20;;
553;SDS011;59;48.778;9.156;2024-01-30T05:49:25;16.40;;;8.23;;
553;SDS011;59;48.778;9.156;2024-01-30T05:52:10;15.60;;;8.60;;
553;SDS011;59;48.778;9.156;2024-01-30T05:54:40;14.53;;;8.37;;
553;SDS011;59;48.778;9.156;2024-01-30T05:57:31;14.97;;;8.33;;
553;SDS011;59;48.778;9.156;2024-01-30T06:00:21;14.67;;;8.67;;
553;SDS011;59;48.778;9.156;2024-01-30T06:02:56;12.97;;;8.97;;
553;SDS011;59;48.778;9.156;2024-01-30T06:05:31;22.50;;;12.57;;
553;SDS011;59;48.778;9.156;2024-01-30T06:08:02;13.80;;;8.67;;
553;SDS011;59;48.778;9.156;2024-01-30T06:10:28;17.13;;;9.43;;
553;SDS011;59;48.778;9.156;2024-01-30T06:12:53;16.37;;;9.43;;
553;SDS011;59;48.778;9.156;2024-01-30T06:15:19;16.37;;;10.10;;
553;SDS011;59;48.778;9.156;2024-01-30T06:17:45;17.07;;;9.43;;
553;SDS011;59;48.778;9.156;2024-01-30T06:20:11;17.87;;;9.10;;
553;SDS011;59;48.778;9.156;2024-01-30T06:22:37;17.27;;;8.40;;
553;SDS011;59;48.778;9.156;2024-01-30T06:25:03;16.83;;;9.17;;
553;SDS011;59;48.778;9.156;2024-01-30T06:27:29;17.00;;;9.07;;
553;SDS011;59;48.778;9.156;2024-01-30T06:29:54;16.10;;;9.50;;
553;SDS011;59;48.778;9.156;2024-01-30T06:32:20;15.60;;;9.07;;
553;SDS011;59;48.778;9.156;2024-01-30T06:34:48;14.93;;;10.00;;
553;SDS011;59;48.778;9.156;2024-01-30T06:37:14;13.43;;;8.60;;
553;SDS011;59;48.778;9.156;2024-01-30T06:39:40;17.20;;;9.40;;
553;SDS011;59;48.778;9.156;2024-01-30T06:42:05;20.93;;;9.73;;
553;SDS011;59;48.778;9.156;2024-01-30T06:47:48;16.17;;;9.67;;
553;SDS011;59;48.778;9.156;2024-01-30T06:50:30;16.17;;;9.53;;
553;SDS011;59;48.778;9.156;2024-01-30T06:52:56;16.27;;;9.67;;
553;SDS011;59;48.778;9.156;2024-01-30T06:55:22;14.60;;;9.10;;
553;SDS011;59;48.778;9.156;2024-01-30T06:57:48;15.13;;;8.63;;
553;SDS011;59;48.778;9.156;2024-01-30T07:00:13;19.80;;;9.70;;
553;SDS011;59;48.778;9.156;2024-01-30T07:02:40;18.70;;;9.93;;
553;SDS011;59;48.778;9.156;2024-01-30T07:05:06;18.03;;;9.30;;
553;SDS011;59;48.778;9.156;2024-01-30T07:07:32;17.40;;;10.20;;
553;SDS011;59;48.778;9.156;2024-01-30T07:09:58;16.87;;;9.80;;
553;SDS011;59;48.778;9.156;2024-01-30T07:12:23;20.10;;;9.80;;
553;SDS011;59;48.778;9.156;2024-01-30T07:14:52;18.73;;;10.63;;
553;SDS011;59;48.778;9.156;2024-01-30T07:17:18;19.63;;;10.03;;
553;SDS011;59;48.778;9.156;2024-01-30T07:19:53;21.37;;;10.60;;
553;SDS011;59;48.778;9.156;2024-01-30T07:25:48;20.33;;;11.70;;
553;SDS011;59;48.778;9.156;2024-01-30T07:28:44;20.70;;;11.63;;
553;SDS011;59;48.778;9.156;2024-01-30T07:34:47;22.33;;;10.57;;
553;SDS011;59;48.778;9.156;2024-01-30T07:37:15;18.27;;;11.40;;
553;SDS011;59;48.778;9.156;2024-01-30T07:42:45;20.03;;;10.57;;
553;SDS011;59;48.778;9.156;2024-01-30T07:45:13;28.60;;;11.97;;
553;SDS011;59;48.778;9.156;2024-01-30T07:47:44;20.50;;;11.27;;
553;SDS011;59;48.778;9.156;2024-01-30T07:50:10;21.67;;;11.30;;
553;SDS011;59;48.778;9.156;2024-01-30T07:52:39;20.00;;;10.93;;
553;SDS011;59;48.778;9.156;2024-01-30T07:55:07;20.53;;;9.90;;
553;SDS011;59;48.778;9.156;2024-01-30T07:57:38;24.13;;;11.97;;
553;SDS011;59;48.778;9.156;2024-01-30T08:00:07;22.27;;;11.50;;
553;SDS011;59;48.778;9.156;2024-01-30T08:02:42;17.17;;;10.23;;
553;SDS011;59;48.778;9.156;2024-01-30T08:05:45;21.90;;;11.13;;
553;SDS011;59;48.778;9.156;2024-01-30T08:08:27;20.67;;;11.63;;
553;SDS011;59;48.778;9.156;2024-01-30T08:14:32;21.20;;;10.70;;
553;SDS011;59;48.778;9.156;2024-01-30T08:20:41;22.53;;;12.07;;
553;SDS011;59;48.778;9.156;2024-01-30T08:23:10;20.13;;;10.90;;
553;SDS011;59;48.778;9.156;2024-01-30T08:25:48;20.00;;;10.30;;
553;SDS011;59;48.778;9.156;2024-01-30T08:28:14;21.60;;;10.80;;
553;SDS011;59;48.778;9.156;2024-01-30T08:30:39;16.40;;;10.00;;
553;SDS011;59;48.778;9.156;2024-01-30T08:33:05;17.57;;;11.47;;
553;SDS011;59;48.778;9.156;2024-01-30T08:35:31;19.43;;;10.90;;
553;SDS011;59;48.778;9.156;2024-01-30T08:37:58;23.53;;;11.90;;
553;SDS011;59;48.778;9.156;2024-01-30T08:40:25;23.30;;;11.73;;
553;SDS011;59;48.778;9.156;2024-01-30T08:42:50;18.73;;;12.10;;
553;SDS011;59;48.778;9.156;2024-01-30T08:45:16;22.20;;;12.20;;
553;SDS011;59;48.778;9.156;2024-01-30T08:47:42;18.37;;;11.17;;
553;SDS011;59;48.778;9.156;2024-01-30T08:50:33;21.10;;;12.13;;
553;SDS011;59;48.778;9.156;2024-01-30T08:53:08;24.57;;;12.50;;
553;SDS011;59;48.778;9.156;2024-01-30T08:56:17;27.07;;;13.10;;
553;SDS011;59;48.778;9.156;2024-01-30T08:59:29;25.90;;;12.00;;
553;SDS011;59;48.778;9.156;2024-01-30T09:01:32;19.10;;;11.00;;
553;SDS011;59;48.778;9.156;2024-01-30T09:03:57;21.83;;;11.53;;
553;SDS011;59;48.778;9.156;2024-01-30T09:06:23;21.27;;;11.73;;
553;SDS011;59;48.778;9.156;2024-01-30T09:08:51;19.30;;;10.50;;
553;SDS011;59;48.778;9.156;2024-01-30T09:11:17;25.90;;;11.70;;
553;SDS011;59;48.778;9.156;2024-01-30T09:13:43;18.57;;;11.60;;
553;SDS011;59;48.778;9.156;2024-01-30T09:16:09;20.30;;;12.33;;
553;SDS011;59;48.778;9.156;2024-01-30T09:18:34;22.50;;;11.47;;
553;SDS011;59;48.778;9.156;2024-01-30T09:21:00;23.73;;;11.70;;
553;SDS011;59;48.778;9.156;2024-01-30T09:23:27;21.77;;;11.53;;
553;SDS011;59;48.778;9.156;2024-01-30T09:25:53;18.93;;;11.20;;
553;SDS011;59;48.778;9.156;2024-01-30T09:28:18;21.90;;;11.80;;
553;SDS011;59;48.778;9.156;2024-01-30T09:30:44;20.77;;;12.53;;
553;SDS011;59;48.778;9.156;2024-01-30T09:33:10;18.20;;;11.43;;
553;SDS011;59;48.778;9.156;2024-01-30T09:35:36;24.53;;;12.13;;
553;SDS011;59;48.778;9.156;2024-01-30T09:38:01;23.90;;;11.83;;
553;SDS011;59;48.778;9.156;2024-01-30T09:40:27;23.33;;;11.97;;
553;SDS011;59;48.778;9.156;2024-01-30T09:42:54;24.63;;;10.90;;
553;SDS011;59;48.778;9.156;2024-01-30T09:45:20;20.00;;;11.63;;
553;SDS011;59;48.778;9.156;2024-01-30T09:47:49;18.10;;;11.83;;
553;SDS011;59;48.778;9.156;2024-01-30T09:50:15;22.80;;;12.23;;
553;SDS011;59;48.778;9.156;2024-01-30T09:52:42;24.77;;;12.80;;
553;SDS011;59;48.778;9.156;2024-01-30T09:55:09;23.23;;;11.90;;
553;SDS011;59;48.778;9.156;2024-01-30T09:57:34;17.27;;;10.60;;
553;SDS011;59;48.778;9.156;2024-01-30T10:00:01;20.17;;;11.97;;
553;SDS011;59;48.778;9.156;2024-01-30T10:02:27;20.50;;;11.40;;
553;SDS011;59;48.778;9.156;2024-01-30T10:04:53;20.20;;;11.17;;
553;SDS011;59;48.778;9.156;2024-01-30T10:07:19;22.60;;;11.57;;
553;SDS011;59;48.778;9.156;2024-01-30T10:09:45;18.33;;;11.53;;
553;SDS011;59;48.778;9.156;2024-01-30T10:12:11;18.23;;;12.03;;
553;SDS011;59;48.778;9.156;2024-01-30T10:14:41;24.70;;;12.10;;
553;SDS011;59;48.778;9.156;2024-01-30T10:17:07;22.03;;;11.30;;
553;SDS011;59;48.778;9.156;2024-01-30T10:19:34;23.40;;;12.33;;
553;SDS011;59;48.778;9.156;2024-01-30T10:22:04;21.17;;;10.93;;
553;SDS011;59;48.778;9.156;2024-01-30T10:24:29;20.30;;;12.20;;
553;SDS011;59;48.778;9.156;2024-01-30T10:26:55;23.73;;;11.90;;
553;SDS011;59;48.778;9.156;2024-01-30T10:29:22;18.43;;;10.70;;
553;SDS011;59;48.778;9.156;2024-01-30T10:32:04;31.00;;;12.00;;
553;SDS011;59;48.778;9.156;2024-01-30T10:34:30;17.77;;;10.77;;
553;SDS011;59;48.778;9.156;2024-01-30T10:37:03;27.13;;;12.80;;
553;SDS011;59;48.778;9.156;2024-01-30T10:39:38;20.73;;;11.50;;
553;SDS011;59;48.778;9.156;2024-01-30T10:42:04;20.53;;;11.23;;
553;SDS011;59;48.778;9.156;2024-01-30T10:44:43;22.00;;;11.73;;
553;SDS011;59;48.778;9.156;2024-01-30T10:47:11;20.73;;;11.37;;
553;SDS011;59;48.778;9.156;2024-01-30T10:49:39;21.60;;;11.73;;
553;SDS011;59;48.778;9.156;2024-01-30T10:52:05;22.00;;;11.10;;
553;SDS011;59;48.778;9.156;2024-01-30T10:54:31;20.23;;;11.93;;
553;SDS011;59;48.778;9.156;2024-01-30T10:56:58;23.53;;;10.97;;
553;SDS011;59;48.778;9.156;2024-01-30T10:59:26;22.23;;;10.90;;
553;SDS011;59;48.778;9.156;2024-01-30T11:01:52;20.40;;;10.93;;
553;SDS011;59;48.778;9.156;2024-01-30T11:04:18;20.70;;;11.50;;
553;SDS011;59;48.778;9.156;2024-01-30T11:06:44;36.13;;;13.60;;
553;SDS011;59;48.778;9.156;2024-01-30T11:09:10;22.47;;;12.57;;
553;SDS011;59;48.778;9.156;2024-01-30T11:11:50;22.23;;;11.60;;
553;SDS011;59;48.778;9.156;2024-01-30T11:14:26;20.07;;;11.33;;
553;SDS011;59;48.778;9.156;2024-01-30T11:16:57;23.90;;;11.37;;
553;SDS011;59;48.778;9.156;2024-01-30T11:19:24;20.83;;;11.80;;
553;SDS011;59;48.778;9.156;2024-01-30T11:21:53;27.50;;;14.73;;
553;SDS011;59;48.778;9.156;2024-01-30T11:24:22;21.23;;;11.40;;
553;SDS011;59;48.778;9.156;2024-01-30T11:26:49;18.73;;;12.17;;
553;SDS011;59;48.778;9.156;2024-01-30T11:29:20;21.20;;;12.20;;
553;SDS011;59;48.778;9.156;2024-01-30T11:31:53;24.23;;;12.00;;
553;SDS011;59;48.778;9.156;2024-01-30T11:34:19;20.70;;;12.00;;
553;SDS011;59;48.778;9.156;2024-01-30T11:36:47;22.03;;;12.13;;
553;SDS011;59;48.778;9.156;2024-01-30T11:39:23;30.40;;;13.33;;
553;SDS011;59;48.778;9.156;2024-01-30T11:41:53;25.53;;;12.30;;
553;SDS011;59;48.778;9.156;2024-01-30T11:44:22;19.17;;;10.93;;
553;SDS011;59;48.778;9.156;2024-01-30T11:46:48;17.07;;;11.47;;
553;SDS011;59;48.778;9.156;2024-01-30T11:49:14;21.60;;;10.80;;
553;SDS011;59;48.778;9.156;2024-01-30T11:51:40;30.80;;;12.93;;
553;SDS011;59;48.778;9.156;2024-01-30T11:54:07;21.03;;;11.80;;
553;SDS011;59;48.778;9.156;2024-01-30T11:56:33;21.30;;;11.10;;
553;SDS011;59;48.778;9.156;2024-01-30T11:58:58;23.60;;;12.73;;
553;SDS011;59;48.778;9.156;2024-01-30T12:01:25;19.70;;;11.77;;
553;SDS011;59;48.778;9.156;2024-01-30T12:03:51;23.70;;;13.30;;
553;SDS011;59;48.778;9.156;2024-01-30T12:06:17;24.10;;;12.20;;
553;SDS011;59;48.778;9.156;2024-01-30T12:08:43;20.97;;;12.20;;
553;SDS011;59;48.778;9.156;2024-01-30T12:11:22;21.10;;;11.40;;
553;SDS011;59;48.778;9.156;2024-01-30T12:13:48;22.30;;;11.63;;
553;SDS011;59;48.778;9.156;2024-01-30T12:16:15;17.90;;;11.03;;
553;SDS011;59;48.778;9.156;2024-01-30T12:18:41;18.77;;;10.03;;
553;SDS011;59;48.778;9.156;2024-01-30T12:21:07;21.57;;;11.43;;
553;SDS011;59;48.778;9.156;2024-01-30T12:23:34;19.00;;;11.30;;
553;SDS011;59;48.778;9.156;2024-01-30T12:26:00;23.57;;;12.17;;
553;SDS011;59;48.778;9.156;2024-01-30T12:28:28;20.83;;;11.47;;
553;SDS011;59;48.778;9.156;2024-01-30T12:31:00;19.03;;;10.40;;
553;SDS011;59;48.778;9.156;2024-01-30T12:33:30;21.40;;;11.47;;
553;SDS011;59;48.778;9.156;2024-01-30T12:35:56;21.00;;;10.83;;
553;SDS011;59;48.778;9.156;2024-01-30T12:38:23;16.47;;;10.37;;
553;SDS011;59;48.778;9.156;2024-01-30T12:40:50;24.20;;;11.73;;
553;SDS011;59;48.778;9.156;2024-01-30T12:43:20;23.63;;;11.70;;
553;SDS011;59;48.778;9.156;2024-01-30T12:45:46;24.03;;;12.57;;
553;SDS011;59;48.778;9.156;2024-01-30T12:48:12;21.83;;;11.20;;
553;SDS011;59;48.778;9.156;2024-01-30T12:50:38;21.63;;;10.60;;
553;SDS011;59;48.778;9.156;2024-01-30T12:53:03;17.30;;;10.40;;
553;SDS011;59;48.778;9.156;2024-01-30T12:55:29;28.43;;;11.77;;
553;SDS011;59;48.778;9.156;2024-01-30T12:57:55;15.70;;;10.47;;
553;SDS011;59;48.778;9.156;2024-01-30T13:00:21;20.47;;;11.27;;
553;SDS011;59;48.778;9.156;2024-01-30T13:02:47;20.23;;;12.20;;
553;SDS011;59;48.778;9.156;2024-01-30T13:05:13;20.93;;;11.87;;
553;SDS011;59;48.778;9.156;2024-01-30T13:07:39;24.23;;;11.50;;
553;SDS011;59;48.778;9.156;2024-01-30T13:10:05;20.30;;;11.97;;
553;SDS011;59;48.778;9.156;2024-01-30T13:12:31;18.13;;;10.43;;
553;SDS011;59;48.778;9.156;2024-01-30T13:14:58;21.10;;;11.80;;
553;SDS011;59;48.778;9.156;2024-01-30T13:17:26;22.57;;;11.83;;
553;SDS011;59;48.778;9.156;2024-01-30T13:19:52;19.50;;;10.20;;
553;SDS011;59;48.778;9.156;2024-01-30T13:22:19;18.23;;;10.30;;
553;SDS011;59;48.778;9.156;2024-01-30T13:24:46;19.93;;;10.53;;
553;SDS011;59;48.778;9.156;2024-01-30T13:27:12;19.50;;;11.73;;
553;SDS011;59;48.778;9.156;2024-01-30T13:29:38;18.03;;;10.40;;
553;SDS011;59;48.778;9.156;2024-01-30T13:32:04;19.60;;;10.90;;
553;SDS011;59;48.778;9.156;2024-01-30T13:34:30;23.30;;;11.73;;
553;SDS011;59;48.778;9.156;2024-01-30T13:36:56;29.73;;;12.83;;
553;SDS011;59;48.778;9.156;2024-01-30T13:39:22;22.70;;;11.50;;
553;SDS011;59;48.778;9.156;2024-01-30T13:41:48;22.53;;;12.20;;
553;SDS011;59;48.778;9.156;2024-01-30T13:44:15;22.03;;;11.93;;
553;SDS011;59;48.778;9.156;2024-01-30T13:46:45;19.70;;;11.60;;
553;SDS011;59;48.778;9.156;2024-01-30T13:49:13;19.23;;;11.10;;
553;SDS011;59;48.778;9.156;2024-01-30T13:51:42;21.00;;;11.10;;
553;SDS011;59;48.778;9.156;2024-01-30T13:54:08;22.60;;;11.30;;
553;SDS011;59;48.778;9.156;2024-01-30T13:56:33;21.20;;;11.30;;
553;SDS011;59;48.778;9.156;2024-01-30T13:58:59;23.23;;;11.60;;
553;SDS011;59;48.778;9.156;2024-01-30T14:01:30;22.00;;;11.67;;
553;SDS011;59;48.778;9.156;2024-01-30T14:03:56;23.67;;;10.63;;
553;SDS011;59;48.778;9.156;2024-01-30T14:06:22;30.50;;;11.87;;
553;SDS011;59;48.778;9.156;2024-01-30T14:08:51;21.53;;;10.90;;
553;SDS011;59;48.778;9.156;2024-01-30T14:11:20;20.40;;;11.17;;
553;SDS011;59;48.778;9.156;2024-01-30T14:13:46;22.33;;;11.27;;
553;SDS011;59;48.778;9.156;2024-01-30T14:16:11;17.43;;;10.10;;
553;SDS011;59;48.778;9.156;2024-01-30T14:18:37;20.50;;;11.43;;
553;SDS011;59;48.778;9.156;2024-01-30T14:21:03;18.77;;;10.67;;
553;SDS011;59;48.778;9.156;2024-01-30T14:23:29;22.87;;;10.27;;
553;SDS011;59;48.778;9.156;2024-01-30T14:25:54;17.57;;;10.27;;
553;SDS011;59;48.778;9.156;2024-01-30T14:28:20;22.90;;;10.50;;
553;SDS011;59;48.778;9.156;2024-01-30T14:30:46;24.33;;;10.53;;
553;SDS011;59;48.778;9.156;2024-01-30T14:33:12;20.00;;;10.40;;
553;SDS011;59;48.778;9.156;2024-01-30T14:35:38;20.03;;;10.80;;
553;SDS011;59;48.778;9.156;2024-01-30T14:38:04;18.20;;;10.27;;
553;SDS011;59;48.778;9.156;2024-01-30T14:40:32;20.13;;;10.30;;
553;SDS011;59;48.778;9.156;2024-01-30T14:42:58;22.17;;;10.33;;
553;SDS011;59;48.778;9.156;2024-01-30T14:45:23;21.00;;;10.60;;
553;SDS011;59;48.778;9.156;2024-01-30T14:47:49;21.40;;;11.10;;
553;SDS011;59;48.778;9.156;2024-01-30T14:50:15;22.03;;;11.90;;
553;SDS011;59;48.778;9.156;2024-01-30T14:52:42;18.50;;;11.10;;
553;SDS011;59;48.778;9.156;2024-01-30T14:55:08;21.67;;;11.27;;
553;SDS011;59;48.778;9.156;2024-01-30T14:57:34;24.93;;;12.10;;
553;SDS011;59;48.778;9.156;2024-01-30T15:00:00;23.87;;;11.57;;
553;SDS011;59;48.778;9.156;2024-01-30T15:02:26;31.43;;;11.37;;
553;SDS011;59;48.778;9.156;2024-01-30T15:04:51;23.40;;;11.67;;
553;SDS011;59;48.778;9.156;2024-01-30T15:07:17;28.13;;;12.67;;
553;SDS011;59;48.778;9.156;2024-01-30T15:09:43;20.73;;;11.40;;
553;SDS011;59;48.778;9.156;2024-01-30T15:12:09;25.20;;;11.00;;
553;SDS011;59;48.778;9.156;2024-01-30T15:14:35;21.40;;;11.67;;
553;SDS011;59;48.778;9.156;2024-01-30T15:17:00;23.27;;;11.60;;
553;SDS011;59;48.778;9.156;2024-01-30T15:19:27;19.63;;;11.67;;
553;SDS011;59;48.778;9.156;2024-01-30T15:21:53;36.53;;;13.40;;
553;SDS011;59;48.778;9.156;2024-01-30T15:24:19;21.70;;;12.23;;
553;SDS011;59;48.778;9.156;2024-01-30T15:26:49;20.57;;;12.37;;
553;SDS011;59;48.778;9.156;2024-01-30T15:29:16;24.97;;;12.80;;
553;SDS011;59;48.778;9.156;2024-01-30T15:31:41;21.90;;;12.30;;
553;SDS011;59;48.778;9.156;2024-01-30T15:34:07;26.27;;;12.47;;
553;SDS011;59;48.778;9.156;2024-01-30T15:36:33;22.83;;;11.73;;
553;SDS011;59;48.778;9.156;2024-01-30T15:38:59;30.03;;;13.40;;
553;SDS011;59;48.778;9.156;2024-01-30T15:41:24;24.40;;;13.43;;
553;SDS011;59;48.778;9.156;2024-01-30T15:43:50;22.30;;;12.57;;
553;SDS011;59;48.778;9.156;2024-01-30T15:46:16;29.63;;;13.57;;
553;SDS011;59;48.778;9.156;2024-01-30T15:48:42;22.47;;;12.77;;
553;SDS011;59;48.778;9.156;2024-01-30T15:51:07;34.30;;;12.93;;
553;SDS011;59;48.778;9.156;2024-01-30T15:53:33;22.90;;;13.53;;
553;SDS011;59;48.778;9.156;2024-01-30T15:56:02;26.13;;;13.83;;
553;SDS011;59;48.778;9.156;2024-01-30T15:58:28;24.30;;;14.43;;
553;SDS011;59;48.778;9.156;2024-01-30T16:00:54;25.87;;;14.50;;
553;SDS011;59;48.778;9.156;2024-01-30T16:03:20;24.30;;;12.40;;
553;SDS011;59;48.778;9.156;2024-01-30T16:05:46;38.17;;;13.73;;
553;SDS011;59;48.778;9.156;2024-01-30T16:08:11;28.20;;;14.57;;
553;SDS011;59;48.778;9.156;2024-01-30T16:10:37;22.03;;;12.70;;
553;SDS011;59;48.778;9.156;2024-01-30T16:13:03;30.10;;;13.03;;
553;SDS011;59;48.778;9.156;2024-01-30T16:15:29;32.13;;;12.87;;